sensor_id;sensor_type;location;lat;lon;timestamp;P1;durP1;ratioP1;P2;durP2;ratioP2
57800;SDS011;43627;42.728;23.256;2023-04-24T00:02:22;5.75;;;3.80;;
57800;SDS011;43627;42.728;23.256;2023-04-24T00:04:50;6.47;;;3.80;;
57800;SDS011;43627;42.728;23.256;2023-04-24T00:07:17;4.45;;;3.33;;
57800;SDS011;43627;42.728;23.256;2023-04-24T00:09:46;9.57;;;3.80;;
57800;SDS011;43627;42.728;23.256;2023-04-24T00:12:13;5.15;;;3.35;;
57800;SDS011;43627;42.728;23.256;2023-04-24T00:15:09;7.10;;;4.15;;
57800;SDS011;43627;42.728;23.256;2023-04-24T00:17:59;7.70;;;3.42;;
57800;SDS011;43627;42.728;23.256;2023-04-24T00:20:53;6.63;;;3.65;;
57800;SDS011;43627;42.728;23.256;2023-04-24T00:23:59;7.30;;;3.72;;
57800;SDS011;43627;42.728;23.256;2023-04-24T00:26:39;6.68;;;3.90;;
57800;SDS011;43627;42.728;23.256;2023-04-24T00:29:07;10.98;;;5.22;;
57800;SDS011;43627;42.728;23.256;2023-04-24T00:31:35;6.82;;;4.47;;
57800;SDS011;43627;42.728;23.256;2023-04-24T00:34:02;14.38;;;5.70;;
57800;SDS011;43627;42.728;23.256;2023-04-24T00:36:29;9.93;;;6.25;;
57800;SDS011;43627;42.728;23.256;2023-04-24T00:38:57;11.60;;;5.63;;
57800;SDS011;43627;42.728;23.256;2023-04-24T00:41:27;9.38;;;6.03;;
57800;SDS011;43627;42.728;23.256;2023-04-24T00:43:53;8.20;;;5.50;;
57800;SDS011;43627;42.728;23.256;2023-04-24T00:46:21;10.35;;;5.68;;
57800;SDS011;43627;42.728;23.256;2023-04-24T00:48:48;14.77;;;5.95;;
57800;SDS011;43627;42.728;23.256;2023-04-24T00:51:15;12.90;;;6.93;;
57800;SDS011;43627;42.728;23.256;2023-04-24T00:53:42;12.25;;;6.65;;
57800;SDS011;43627;42.728;23.256;2023-04-24T00:56:09;13.20;;;5.97;;
57800;SDS011;43627;42.728;23.256;2023-04-24T00:58:36;12.35;;;6.60;;
57800;SDS011;43627;42.728;23.256;2023-04-24T01:01:03;12.45;;;5.97;;
57800;SDS011;43627;42.728;23.256;2023-04-24T01:03:33;10.07;;;6.28;;
57800;SDS011;43627;42.728;23.256;2023-04-24T01:06:04;13.15;;;7.05;;
57800;SDS011;43627;42.728;23.256;2023-04-24T01:08:31;10.63;;;5.95;;
57800;SDS011;43627;42.728;23.256;2023-04-24T01:11:01;11.55;;;7.03;;
57800;SDS011;43627;42.728;23.256;2023-04-24T01:13:30;13.32;;;6.78;;
57800;SDS011;43627;42.728;23.256;2023-04-24T01:15:58;11.77;;;6.78;;
57800;SDS011;43627;42.728;23.256;2023-04-24T01:18:25;16.65;;;7.63;;
57800;SDS011;43627;42.728;23.256;2023-04-24T01:20:56;13.52;;;8.40;;
57800;SDS011;43627;42.728;23.256;2023-04-24T01:23:24;12.60;;;8.90;;
57800;SDS011;43627;42.728;23.256;2023-04-24T01:25:51;13.05;;;7.28;;
57800;SDS011;43627;42.728;23.256;2023-04-24T01:28:19;14.95;;;7.43;;
57800;SDS011;43627;42.728;23.256;2023-04-24T01:30:46;11.25;;;6.82;;
57800;SDS011;43627;42.728;23.256;2023-04-24T01:33:13;14.80;;;7.70;;
57800;SDS011;43627;42.728;23.256;2023-04-24T01:35:40;12.02;;;6.55;;
57800;SDS011;43627;42.728;23.256;2023-04-24T01:38:07;11.02;;;6.57;;
57800;SDS011;43627;42.728;23.256;2023-04-24T01:40:33;10.95;;;5.30;;
57800;SDS011;43627;42.728;23.256;2023-04-24T01:43:01;10.55;;;6.45;;
57800;SDS011;43627;42.728;23.256;2023-04-24T01:45:28;11.15;;;6.50;;
57800;SDS011;43627;42.728;23.256;2023-04-24T01:47:57;9.10;;;5.63;;
57800;SDS011;43627;42.728;23.256;2023-04-24T01:50:24;10.70;;;5.28;;
57800;SDS011;43627;42.728;23.256;2023-04-24T01:52:51;10.75;;;5.32;;
57800;SDS011;43627;42.728;23.256;2023-04-24T01:55:18;9.77;;;5.40;;
57800;SDS011;43627;42.728;23.256;2023-04-24T01:57:45;9.40;;;5.70;;
57800;SDS011;43627;42.728;23.256;2023-04-24T02:00:12;8.48;;;6.00;;
57800;SDS011;43627;42.728;23.256;2023-04-24T02:02:41;10.98;;;6.65;;
57800;SDS011;43627;42.728;23.256;2023-04-24T02:05:13;14.40;;;5.93;;
57800;SDS011;43627;42.728;23.256;2023-04-24T02:07:40;11.98;;;6.20;;
57800;SDS011;43627;42.728;23.256;2023-04-24T02:10:07;8.90;;;6.00;;
57800;SDS011;43627;42.728;23.256;2023-04-24T02:12:36;9.10;;;6.03;;
57800;SDS011;43627;42.728;23.256;2023-04-24T02:15:04;11.00;;;6.13;;
57800;SDS011;43627;42.728;23.256;2023-04-24T02:17:31;10.73;;;6.25;;
57800;SDS011;43627;42.728;23.256;2023-04-24T02:19:58;10.55;;;6.35;;
57800;SDS011;43627;42.728;23.256;2023-04-24T02:22:25;10.93;;;5.80;;
57800;SDS011;43627;42.728;23.256;2023-04-24T02:24:52;10.43;;;6.70;;
57800;SDS011;43627;42.728;23.256;2023-04-24T02:27:20;13.55;;;6.70;;
57800;SDS011;43627;42.728;23.256;2023-04-24T02:29:47;10.55;;;6.68;;
57800;SDS011;43627;42.728;23.256;2023-04-24T02:32:14;13.23;;;6.93;;
57800;SDS011;43627;42.728;23.256;2023-04-24T02:34:42;11.63;;;6.82;;
57800;SDS011;43627;42.728;23.256;2023-04-24T02:37:08;13.43;;;6.55;;
57800;SDS011;43627;42.728;23.256;2023-04-24T02:39:36;16.25;;;8.18;;
57800;SDS011;43627;42.728;23.256;2023-04-24T02:42:03;10.77;;;7.00;;
57800;SDS011;43627;42.728;23.256;2023-04-24T02:44:30;12.60;;;6.25;;
57800;SDS011;43627;42.728;23.256;2023-04-24T02:47:00;11.90;;;6.47;;
57800;SDS011;43627;42.728;23.256;2023-04-24T02:49:26;13.20;;;7.90;;
57800;SDS011;43627;42.728;23.256;2023-04-24T02:51:53;18.17;;;9.57;;
57800;SDS011;43627;42.728;23.256;2023-04-24T02:54:20;16.30;;;9.38;;
57800;SDS011;43627;42.728;23.256;2023-04-24T02:56:47;13.15;;;7.15;;
57800;SDS011;43627;42.728;23.256;2023-04-24T02:59:13;12.50;;;6.65;;
57800;SDS011;43627;42.728;23.256;2023-04-24T03:01:40;10.80;;;6.68;;
57800;SDS011;43627;42.728;23.256;2023-04-24T03:04:07;12.88;;;6.05;;
57800;SDS011;43627;42.728;23.256;2023-04-24T03:06:34;7.97;;;4.93;;
57800;SDS011;43627;42.728;23.256;2023-04-24T03:09:01;9.25;;;5.97;;
57800;SDS011;43627;42.728;23.256;2023-04-24T03:11:30;8.88;;;5.80;;
57800;SDS011;43627;42.728;23.256;2023-04-24T03:13:57;8.68;;;5.53;;
57800;SDS011;43627;42.728;23.256;2023-04-24T03:16:52;10.30;;;5.22;;
57800;SDS011;43627;42.728;23.256;2023-04-24T03:19:55;8.07;;;5.20;;
57800;SDS011;43627;42.728;23.256;2023-04-24T03:22:48;10.50;;;5.97;;
57800;SDS011;43627;42.728;23.256;2023-04-24T03:25:16;8.80;;;5.28;;
57800;SDS011;43627;42.728;23.256;2023-04-24T03:27:43;11.73;;;5.68;;
57800;SDS011;43627;42.728;23.256;2023-04-24T03:30:12;11.27;;;6.07;;
57800;SDS011;43627;42.728;23.256;2023-04-24T03:32:43;7.15;;;5.28;;
57800;SDS011;43627;42.728;23.256;2023-04-24T03:35:10;13.13;;;6.28;;
57800;SDS011;43627;42.728;23.256;2023-04-24T03:37:40;9.30;;;6.35;;
57800;SDS011;43627;42.728;23.256;2023-04-24T03:40:07;9.65;;;6.55;;
57800;SDS011;43627;42.728;23.256;2023-04-24T03:42:34;10.07;;;5.93;;
57800;SDS011;43627;42.728;23.256;2023-04-24T03:45:04;8.75;;;5.90;;
57800;SDS011;43627;42.728;23.256;2023-04-24T03:47:31;8.38;;;6.10;;
57800;SDS011;43627;42.728;23.256;2023-04-24T03:49:59;11.70;;;6.30;;
57800;SDS011;43627;42.728;23.256;2023-04-24T03:52:25;13.77;;;6.43;;
57800;SDS011;43627;42.728;23.256;2023-04-24T03:54:52;8.85;;;5.05;;
57800;SDS011;43627;42.728;23.256;2023-04-24T03:57:22;16.40;;;6.43;;
57800;SDS011;43627;42.728;23.256;2023-04-24T03:59:49;10.50;;;5.68;;
57800;SDS011;43627;42.728;23.256;2023-04-24T04:02:16;12.52;;;6.53;;
57800;SDS011;43627;42.728;23.256;2023-04-24T04:05:14;8.98;;;5.63;;
57800;SDS011;43627;42.728;23.256;2023-04-24T04:07:42;13.43;;;6.05;;
57800;SDS011;43627;42.728;23.256;2023-04-24T04:12:46;14.77;;;6.30;;
57800;SDS011;43627;42.728;23.256;2023-04-24T04:15:13;11.90;;;5.97;;
57800;SDS011;43627;42.728;23.256;2023-04-24T04:17:40;11.80;;;6.50;;
57800;SDS011;43627;42.728;23.256;2023-04-24T04:20:07;9.43;;;6.15;;
57800;SDS011;43627;42.728;23.256;2023-04-24T04:22:36;7.03;;;5.20;;
57800;SDS011;43627;42.728;23.256;2023-04-24T04:25:06;11.82;;;5.20;;
57800;SDS011;43627;42.728;23.256;2023-04-24T04:27:34;8.45;;;5.85;;
57800;SDS011;43627;42.728;23.256;2023-04-24T04:30:05;20.27;;;7.45;;
57800;SDS011;43627;42.728;23.256;2023-04-24T04:32:36;18.13;;;6.35;;
57800;SDS011;43627;42.728;23.256;2023-04-24T04:35:04;12.63;;;6.35;;
57800;SDS011;43627;42.728;23.256;2023-04-24T04:37:39;18.00;;;6.80;;
57800;SDS011;43627;42.728;23.256;2023-04-24T04:40:07;13.30;;;6.03;;
57800;SDS011;43627;42.728;23.256;2023-04-24T04:42:38;13.67;;;7.47;;
57800;SDS011;43627;42.728;23.256;2023-04-24T04:45:09;14.05;;;5.97;;
57800;SDS011;43627;42.728;23.256;2023-04-24T04:47:41;12.43;;;5.80;;
57800;SDS011;43627;42.728;23.256;2023-04-24T04:50:09;12.30;;;6.72;;
57800;SDS011;43627;42.728;23.256;2023-04-24T04:52:36;9.65;;;6.10;;
57800;SDS011;43627;42.728;23.256;2023-04-24T04:55:07;14.07;;;5.93;;
57800;SDS011;43627;42.728;23.256;2023-04-24T04:57:36;12.98;;;5.28;;
57800;SDS011;43627;42.728;23.256;2023-04-24T05:00:09;11.88;;;5.80;;
57800;SDS011;43627;42.728;23.256;2023-04-24T05:02:41;14.63;;;5.47;;
57800;SDS011;43627;42.728;23.256;2023-04-24T05:05:09;11.25;;;5.30;;
57800;SDS011;43627;42.728;23.256;2023-04-24T05:07:36;13.63;;;6.15;;
57800;SDS011;43627;42.728;23.256;2023-04-24T05:10:03;14.25;;;5.38;;
57800;SDS011;43627;42.728;23.256;2023-04-24T05:12:30;12.80;;;6.03;;
57800;SDS011;43627;42.728;23.256;2023-04-24T05:14:57;23.17;;;5.78;;
57800;SDS011;43627;42.728;23.256;2023-04-24T05:17:24;10.70;;;4.75;;
57800;SDS011;43627;42.728;23.256;2023-04-24T05:19:52;11.88;;;6.18;;
57800;SDS011;43627;42.728;23.256;2023-04-24T05:22:19;11.95;;;6.65;;
57800;SDS011;43627;42.728;23.256;2023-04-24T05:24:47;13.77;;;6.78;;
57800;SDS011;43627;42.728;23.256;2023-04-24T05:27:14;12.80;;;6.15;;
57800;SDS011;43627;42.728;23.256;2023-04-24T05:29:41;16.70;;;6.63;;
57800;SDS011;43627;42.728;23.256;2023-04-24T05:32:09;16.17;;;6.85;;
57800;SDS011;43627;42.728;23.256;2023-04-24T05:34:36;13.75;;;6.47;;
57800;SDS011;43627;42.728;23.256;2023-04-24T05:37:03;13.10;;;5.65;;
57800;SDS011;43627;42.728;23.256;2023-04-24T05:39:34;14.63;;;5.75;;
57800;SDS011;43627;42.728;23.256;2023-04-24T05:42:02;12.90;;;6.10;;
57800;SDS011;43627;42.728;23.256;2023-04-24T05:44:30;9.48;;;5.95;;
57800;SDS011;43627;42.728;23.256;2023-04-24T05:46:57;16.73;;;5.85;;
57800;SDS011;43627;42.728;23.256;2023-04-24T05:49:24;10.68;;;5.85;;
57800;SDS011;43627;42.728;23.256;2023-04-24T05:51:51;7.53;;;4.25;;
57800;SDS011;43627;42.728;23.256;2023-04-24T05:54:18;9.65;;;4.22;;
57800;SDS011;43627;42.728;23.256;2023-04-24T05:56:45;6.07;;;4.00;;
57800;SDS011;43627;42.728;23.256;2023-04-24T05:59:12;8.50;;;3.67;;
57800;SDS011;43627;42.728;23.256;2023-04-24T06:01:39;8.55;;;4.30;;
57800;SDS011;43627;42.728;23.256;2023-04-24T06:04:07;6.63;;;3.90;;
57800;SDS011;43627;42.728;23.256;2023-04-24T06:06:34;5.18;;;2.83;;
57800;SDS011;43627;42.728;23.256;2023-04-24T06:09:02;7.45;;;3.20;;
57800;SDS011;43627;42.728;23.256;2023-04-24T06:11:29;7.40;;;3.30;;
57800;SDS011;43627;42.728;23.256;2023-04-24T06:13:56;10.95;;;2.72;;
57800;SDS011;43627;42.728;23.256;2023-04-24T06:16:23;7.32;;;3.25;;
57800;SDS011;43627;42.728;23.256;2023-04-24T06:18:49;6.25;;;3.10;;
57800;SDS011;43627;42.728;23.256;2023-04-24T06:21:17;6.55;;;2.80;;
57800;SDS011;43627;42.728;23.256;2023-04-24T06:23:44;5.32;;;3.33;;
57800;SDS011;43627;42.728;23.256;2023-04-24T06:26:12;10.95;;;3.40;;
57800;SDS011;43627;42.728;23.256;2023-04-24T06:28:39;8.25;;;3.70;;
57800;SDS011;43627;42.728;23.256;2023-04-24T06:31:06;6.78;;;3.92;;
57800;SDS011;43627;42.728;23.256;2023-04-24T06:33:33;6.53;;;4.05;;
57800;SDS011;43627;42.728;23.256;2023-04-24T06:36:00;7.43;;;3.97;;
57800;SDS011;43627;42.728;23.256;2023-04-24T06:38:27;7.70;;;4.20;;
57800;SDS011;43627;42.728;23.256;2023-04-24T06:40:56;5.20;;;3.05;;
57800;SDS011;43627;42.728;23.256;2023-04-24T06:43:22;6.97;;;3.30;;
57800;SDS011;43627;42.728;23.256;2023-04-24T06:45:49;7.32;;;3.95;;
57800;SDS011;43627;42.728;23.256;2023-04-24T06:48:16;13.38;;;4.28;;
57800;SDS011;43627;42.728;23.256;2023-04-24T06:50:43;7.05;;;3.67;;
57800;SDS011;43627;42.728;23.256;2023-04-24T06:53:10;5.03;;;3.55;;
57800;SDS011;43627;42.728;23.256;2023-04-24T06:55:39;7.10;;;4.22;;
57800;SDS011;43627;42.728;23.256;2023-04-24T06:58:05;12.23;;;3.63;;
57800;SDS011;43627;42.728;23.256;2023-04-24T07:00:32;10.13;;;4.03;;
57800;SDS011;43627;42.728;23.256;2023-04-24T07:02:59;10.73;;;4.25;;
57800;SDS011;43627;42.728;23.256;2023-04-24T07:05:27;8.50;;;3.78;;
57800;SDS011;43627;42.728;23.256;2023-04-24T07:07:54;6.63;;;3.75;;
57800;SDS011;43627;42.728;23.256;2023-04-24T07:10:21;11.00;;;3.97;;
57800;SDS011;43627;42.728;23.256;2023-04-24T07:12:48;12.85;;;3.72;;
57800;SDS011;43627;42.728;23.256;2023-04-24T07:15:15;11.88;;;5.18;;
57800;SDS011;43627;42.728;23.256;2023-04-24T07:17:42;7.55;;;4.50;;
57800;SDS011;43627;42.728;23.256;2023-04-24T07:20:11;10.25;;;4.28;;
57800;SDS011;43627;42.728;23.256;2023-04-24T07:22:38;9.68;;;4.60;;
57800;SDS011;43627;42.728;23.256;2023-04-24T07:25:05;8.45;;;4.80;;
57800;SDS011;43627;42.728;23.256;2023-04-24T07:27:33;11.98;;;3.78;;
57800;SDS011;43627;42.728;23.256;2023-04-24T07:30:00;7.85;;;4.38;;
57800;SDS011;43627;42.728;23.256;2023-04-24T07:32:29;8.68;;;5.22;;
57800;SDS011;43627;42.728;23.256;2023-04-24T07:34:56;9.00;;;5.35;;
57800;SDS011;43627;42.728;23.256;2023-04-24T07:37:23;8.43;;;4.10;;
57800;SDS011;43627;42.728;23.256;2023-04-24T07:39:50;6.13;;;4.20;;
57800;SDS011;43627;42.728;23.256;2023-04-24T07:42:17;6.38;;;4.55;;
57800;SDS011;43627;42.728;23.256;2023-04-24T07:44:45;7.95;;;4.88;;
57800;SDS011;43627;42.728;23.256;2023-04-24T07:47:13;6.68;;;4.07;;
57800;SDS011;43627;42.728;23.256;2023-04-24T07:49:42;11.10;;;4.13;;
57800;SDS011;43627;42.728;23.256;2023-04-24T07:52:09;6.93;;;4.07;;
57800;SDS011;43627;42.728;23.256;2023-04-24T07:54:36;9.70;;;4.32;;
57800;SDS011;43627;42.728;23.256;2023-04-24T07:57:03;9.30;;;3.60;;
57800;SDS011;43627;42.728;23.256;2023-04-24T07:59:31;7.25;;;3.83;;
57800;SDS011;43627;42.728;23.256;2023-04-24T08:01:58;4.90;;;3.35;;
57800;SDS011;43627;42.728;23.256;2023-04-24T08:04:27;11.43;;;3.78;;
57800;SDS011;43627;42.728;23.256;2023-04-24T08:06:54;5.30;;;3.58;;
57800;SDS011;43627;42.728;23.256;2023-04-24T08:09:21;7.57;;;4.25;;
57800;SDS011;43627;42.728;23.256;2023-04-24T08:11:49;8.23;;;4.18;;
57800;SDS011;43627;42.728;23.256;2023-04-24T08:14:17;7.05;;;3.38;;
57800;SDS011;43627;42.728;23.256;2023-04-24T08:16:43;5.88;;;4.10;;
57800;SDS011;43627;42.728;23.256;2023-04-24T08:19:11;5.88;;;3.50;;
57800;SDS011;43627;42.728;23.256;2023-04-24T08:21:38;9.45;;;4.15;;
57800;SDS011;43627;42.728;23.256;2023-04-24T08:24:06;8.85;;;4.10;;
57800;SDS011;43627;42.728;23.256;2023-04-24T08:26:34;6.18;;;3.75;;
57800;SDS011;43627;42.728;23.256;2023-04-24T08:29:01;4.95;;;3.80;;
57800;SDS011;43627;42.728;23.256;2023-04-24T08:31:28;10.10;;;4.95;;
57800;SDS011;43627;42.728;23.256;2023-04-24T08:33:56;8.25;;;4.20;;
57800;SDS011;43627;42.728;23.256;2023-04-24T08:36:23;7.30;;;4.00;;
57800;SDS011;43627;42.728;23.256;2023-04-24T08:39:05;13.40;;;7.07;;
57800;SDS011;43627;42.728;23.256;2023-04-24T08:41:35;5.65;;;3.58;;
57800;SDS011;43627;42.728;23.256;2023-04-24T08:44:04;8.85;;;5.00;;
57800;SDS011;43627;42.728;23.256;2023-04-24T08:46:32;12.25;;;6.30;;
57800;SDS011;43627;42.728;23.256;2023-04-24T08:48:59;6.55;;;3.50;;
57800;SDS011;43627;42.728;23.256;2023-04-24T08:51:27;8.80;;;3.72;;
57800;SDS011;43627;42.728;23.256;2023-04-24T08:53:56;6.18;;;3.90;;
57800;SDS011;43627;42.728;23.256;2023-04-24T08:56:24;10.35;;;4.20;;
57800;SDS011;43627;42.728;23.256;2023-04-24T08:58:51;7.88;;;3.78;;
57800;SDS011;43627;42.728;23.256;2023-04-24T09:01:20;8.35;;;4.13;;
57800;SDS011;43627;42.728;23.256;2023-04-24T09:03:50;5.82;;;3.92;;
57800;SDS011;43627;42.728;23.256;2023-04-24T09:06:19;8.75;;;3.65;;
57800;SDS011;43627;42.728;23.256;2023-04-24T09:08:48;7.80;;;3.88;;
57800;SDS011;43627;42.728;23.256;2023-04-24T09:11:17;5.60;;;4.13;;
57800;SDS011;43627;42.728;23.256;2023-04-24T09:13:44;10.43;;;4.40;;
57800;SDS011;43627;42.728;23.256;2023-04-24T09:16:12;10.23;;;3.97;;
57800;SDS011;43627;42.728;23.256;2023-04-24T09:18:40;5.82;;;3.58;;
57800;SDS011;43627;42.728;23.256;2023-04-24T09:21:07;4.85;;;3.05;;
57800;SDS011;43627;42.728;23.256;2023-04-24T09:23:35;11.38;;;4.63;;
57800;SDS011;43627;42.728;23.256;2023-04-24T09:26:03;6.75;;;3.90;;
57800;SDS011;43627;42.728;23.256;2023-04-24T09:28:37;9.00;;;4.15;;
57800;SDS011;43627;42.728;23.256;2023-04-24T09:31:11;7.88;;;3.80;;
57800;SDS011;43627;42.728;23.256;2023-04-24T09:33:52;8.85;;;4.15;;
57800;SDS011;43627;42.728;23.256;2023-04-24T09:36:34;9.60;;;3.80;;
57800;SDS011;43627;42.728;23.256;2023-04-24T09:39:05;5.32;;;3.53;;
57800;SDS011;43627;42.728;23.256;2023-04-24T09:41:49;6.05;;;3.53;;
57800;SDS011;43627;42.728;23.256;2023-04-24T09:44:17;5.65;;;3.83;;
57800;SDS011;43627;42.728;23.256;2023-04-24T09:49:25;5.82;;;3.63;;
57800;SDS011;43627;42.728;23.256;2023-04-24T09:52:06;13.70;;;3.92;;
57800;SDS011;43627;42.728;23.256;2023-04-24T09:54:34;7.93;;;3.75;;
57800;SDS011;43627;42.728;23.256;2023-04-24T09:57:03;6.15;;;3.70;;
57800;SDS011;43627;42.728;23.256;2023-04-24T09:59:30;7.63;;;3.80;;
57800;SDS011;43627;42.728;23.256;2023-04-24T10:01:57;8.90;;;4.22;;
57800;SDS011;43627;42.728;23.256;2023-04-24T10:04:26;6.18;;;3.97;;
57800;SDS011;43627;42.728;23.256;2023-04-24T10:06:55;9.30;;;3.17;;
57800;SDS011;43627;42.728;23.256;2023-04-24T10:09:24;10.70;;;4.63;;
57800;SDS011;43627;42.728;23.256;2023-04-24T10:11:53;5.85;;;3.78;;
57800;SDS011;43627;42.728;23.256;2023-04-24T10:14:24;6.80;;;3.20;;
57800;SDS011;43627;42.728;23.256;2023-04-24T10:16:53;4.43;;;3.03;;
57800;SDS011;43627;42.728;23.256;2023-04-24T10:19:20;9.95;;;3.75;;
57800;SDS011;43627;42.728;23.256;2023-04-24T10:21:49;9.10;;;2.95;;
57800;SDS011;43627;42.728;23.256;2023-04-24T10:24:17;7.13;;;2.75;;
57800;SDS011;43627;42.728;23.256;2023-04-24T10:26:45;6.40;;;3.30;;
57800;SDS011;43627;42.728;23.256;2023-04-24T10:29:14;6.55;;;3.33;;
57800;SDS011;43627;42.728;23.256;2023-04-24T10:31:43;6.07;;;2.88;;
57800;SDS011;43627;42.728;23.256;2023-04-24T10:34:14;5.03;;;3.00;;
57800;SDS011;43627;42.728;23.256;2023-04-24T10:36:48;6.28;;;2.47;;
57800;SDS011;43627;42.728;23.256;2023-04-24T10:39:23;4.30;;;3.00;;
57800;SDS011;43627;42.728;23.256;2023-04-24T10:41:54;8.25;;;2.47;;
57800;SDS011;43627;42.728;23.256;2023-04-24T10:44:24;5.35;;;2.88;;
57800;SDS011;43627;42.728;23.256;2023-04-24T10:46:54;4.38;;;2.60;;
57800;SDS011;43627;42.728;23.256;2023-04-24T10:49:29;3.95;;;2.53;;
57800;SDS011;43627;42.728;23.256;2023-04-24T10:52:01;13.98;;;3.28;;
57800;SDS011;43627;42.728;23.256;2023-04-24T10:54:35;6.43;;;3.20;;
57800;SDS011;43627;42.728;23.256;2023-04-24T10:59:48;9.55;;;3.42;;
57800;SDS011;43627;42.728;23.256;2023-04-24T11:02:17;6.13;;;2.95;;
57800;SDS011;43627;42.728;23.256;2023-04-24T11:04:45;5.75;;;3.30;;
57800;SDS011;43627;42.728;23.256;2023-04-24T11:07:13;4.50;;;2.70;;
57800;SDS011;43627;42.728;23.256;2023-04-24T11:09:39;5.38;;;3.25;;
57800;SDS011;43627;42.728;23.256;2023-04-24T11:12:10;6.90;;;2.40;;
57800;SDS011;43627;42.728;23.256;2023-04-24T11:17:33;7.72;;;2.92;;
57800;SDS011;43627;42.728;23.256;2023-04-24T11:20:04;3.97;;;2.65;;
57800;SDS011;43627;42.728;23.256;2023-04-24T11:22:53;5.28;;;2.90;;
57800;SDS011;43627;42.728;23.256;2023-04-24T11:25:21;3.55;;;2.67;;
57800;SDS011;43627;42.728;23.256;2023-04-24T11:28:02;4.38;;;2.25;;
57800;SDS011;43627;42.728;23.256;2023-04-24T11:30:31;5.70;;;2.55;;
57800;SDS011;43627;42.728;23.256;2023-04-24T11:33:03;4.07;;;2.10;;
57800;SDS011;43627;42.728;23.256;2023-04-24T11:35:34;5.07;;;2.53;;
57800;SDS011;43627;42.728;23.256;2023-04-24T11:38:03;6.65;;;2.90;;
57800;SDS011;43627;42.728;23.256;2023-04-24T11:40:34;3.85;;;2.95;;
57800;SDS011;43627;42.728;23.256;2023-04-24T11:43:02;5.13;;;2.30;;
57800;SDS011;43627;42.728;23.256;2023-04-24T11:45:33;3.50;;;2.47;;
57800;SDS011;43627;42.728;23.256;2023-04-24T11:48:00;8.38;;;2.28;;
57800;SDS011;43627;42.728;23.256;2023-04-24T11:50:27;3.92;;;2.47;;
57800;SDS011;43627;42.728;23.256;2023-04-24T11:52:54;3.45;;;2.55;;
57800;SDS011;43627;42.728;23.256;2023-04-24T11:55:22;5.88;;;3.35;;
57800;SDS011;43627;42.728;23.256;2023-04-24T11:57:54;4.07;;;2.55;;
57800;SDS011;43627;42.728;23.256;2023-04-24T12:00:30;3.15;;;2.70;;
57800;SDS011;43627;42.728;23.256;2023-04-24T12:03:10;6.10;;;2.97;;
57800;SDS011;43627;42.728;23.256;2023-04-24T12:05:38;3.83;;;2.88;;
57800;SDS011;43627;42.728;23.256;2023-04-24T12:08:06;3.63;;;2.10;;
57800;SDS011;43627;42.728;23.256;2023-04-24T12:10:33;6.45;;;2.92;;
57800;SDS011;43627;42.728;23.256;2023-04-24T12:13:01;3.75;;;2.40;;
57800;SDS011;43627;42.728;23.256;2023-04-24T12:15:28;5.93;;;2.63;;
57800;SDS011;43627;42.728;23.256;2023-04-24T12:17:55;2.95;;;2.08;;
57800;SDS011;43627;42.728;23.256;2023-04-24T12:20:30;5.70;;;2.58;;
57800;SDS011;43627;42.728;23.256;2023-04-24T12:22:58;6.15;;;2.58;;
57800;SDS011;43627;42.728;23.256;2023-04-24T12:25:27;5.65;;;2.35;;
57800;SDS011;43627;42.728;23.256;2023-04-24T12:30:33;7.80;;;2.90;;
57800;SDS011;43627;42.728;23.256;2023-04-24T12:33:02;4.05;;;2.40;;
57800;SDS011;43627;42.728;23.256;2023-04-24T12:35:30;5.30;;;2.78;;
57800;SDS011;43627;42.728;23.256;2023-04-24T12:38:08;4.00;;;2.60;;
57800;SDS011;43627;42.728;23.256;2023-04-24T12:40:36;3.33;;;2.90;;
57800;SDS011;43627;42.728;23.256;2023-04-24T12:43:17;4.53;;;2.72;;
57800;SDS011;43627;42.728;23.256;2023-04-24T12:45:46;2.78;;;2.08;;
57800;SDS011;43627;42.728;23.256;2023-04-24T12:48:14;5.18;;;2.90;;
57800;SDS011;43627;42.728;23.256;2023-04-24T12:50:41;4.25;;;2.78;;
57800;SDS011;43627;42.728;23.256;2023-04-24T12:53:12;3.25;;;2.55;;
57800;SDS011;43627;42.728;23.256;2023-04-24T12:55:39;3.63;;;2.53;;
57800;SDS011;43627;42.728;23.256;2023-04-24T12:58:06;2.80;;;2.33;;
57800;SDS011;43627;42.728;23.256;2023-04-24T13:00:33;4.93;;;2.70;;
57800;SDS011;43627;42.728;23.256;2023-04-24T13:03:00;3.90;;;2.47;;
57800;SDS011;43627;42.728;23.256;2023-04-24T13:05:28;3.08;;;2.50;;
57800;SDS011;43627;42.728;23.256;2023-04-24T13:07:54;5.40;;;1.83;;
57800;SDS011;43627;42.728;23.256;2023-04-24T13:10:22;4.10;;;2.53;;
57800;SDS011;43627;42.728;23.256;2023-04-24T13:12:48;8.60;;;1.98;;
57800;SDS011;43627;42.728;23.256;2023-04-24T13:15:15;4.55;;;2.40;;
57800;SDS011;43627;42.728;23.256;2023-04-24T13:17:42;2.58;;;2.15;;
57800;SDS011;43627;42.728;23.256;2023-04-24T13:20:09;3.17;;;1.80;;
57800;SDS011;43627;42.728;23.256;2023-04-24T13:22:36;4.47;;;2.08;;
57800;SDS011;43627;42.728;23.256;2023-04-24T13:25:03;5.00;;;2.25;;
57800;SDS011;43627;42.728;23.256;2023-04-24T13:27:32;2.92;;;1.92;;
57800;SDS011;43627;42.728;23.256;2023-04-24T13:29:59;3.42;;;2.08;;
57800;SDS011;43627;42.728;23.256;2023-04-24T13:32:26;4.25;;;2.08;;
57800;SDS011;43627;42.728;23.256;2023-04-24T13:34:53;5.85;;;1.73;;
57800;SDS011;43627;42.728;23.256;2023-04-24T13:37:20;3.33;;;1.70;;
57800;SDS011;43627;42.728;23.256;2023-04-24T13:39:48;2.55;;;1.83;;
57800;SDS011;43627;42.728;23.256;2023-04-24T13:42:16;2.35;;;1.83;;
57800;SDS011;43627;42.728;23.256;2023-04-24T13:44:44;4.20;;;1.95;;
57800;SDS011;43627;42.728;23.256;2023-04-24T13:47:11;2.35;;;1.83;;
57800;SDS011;43627;42.728;23.256;2023-04-24T13:49:38;3.22;;;2.22;;
57800;SDS011;43627;42.728;23.256;2023-04-24T13:52:05;2.47;;;2.00;;
57800;SDS011;43627;42.728;23.256;2023-04-24T13:54:31;3.63;;;2.60;;
57800;SDS011;43627;42.728;23.256;2023-04-24T13:56:59;2.67;;;2.08;;
57800;SDS011;43627;42.728;23.256;2023-04-24T13:59:26;3.05;;;2.30;;
57800;SDS011;43627;42.728;23.256;2023-04-24T14:01:53;4.05;;;2.00;;
57800;SDS011;43627;42.728;23.256;2023-04-24T14:04:20;3.13;;;2.45;;
57800;SDS011;43627;42.728;23.256;2023-04-24T14:06:48;4.88;;;2.28;;
57800;SDS011;43627;42.728;23.256;2023-04-24T14:09:14;2.15;;;1.65;;
57800;SDS011;43627;42.728;23.256;2023-04-24T14:11:41;2.13;;;1.90;;
57800;SDS011;43627;42.728;23.256;2023-04-24T14:14:08;3.60;;;2.67;;
57800;SDS011;43627;42.728;23.256;2023-04-24T14:16:35;2.60;;;2.40;;
57800;SDS011;43627;42.728;23.256;2023-04-24T14:19:02;2.75;;;1.92;;
57800;SDS011;43627;42.728;23.256;2023-04-24T14:21:28;2.97;;;1.88;;
57800;SDS011;43627;42.728;23.256;2023-04-24T14:23:56;3.25;;;1.73;;
57800;SDS011;43627;42.728;23.256;2023-04-24T14:26:23;3.97;;;2.20;;
57800;SDS011;43627;42.728;23.256;2023-04-24T14:28:50;2.97;;;1.80;;
57800;SDS011;43627;42.728;23.256;2023-04-24T14:31:32;6.57;;;2.47;;
57800;SDS011;43627;42.728;23.256;2023-04-24T14:33:59;6.63;;;1.70;;
57800;SDS011;43627;42.728;23.256;2023-04-24T14:36:28;5.55;;;2.00;;
57800;SDS011;43627;42.728;23.256;2023-04-24T14:38:56;5.22;;;2.47;;
57800;SDS011;43627;42.728;23.256;2023-04-24T14:41:23;3.40;;;1.85;;
57800;SDS011;43627;42.728;23.256;2023-04-24T14:43:50;2.00;;;1.90;;
57800;SDS011;43627;42.728;23.256;2023-04-24T14:46:17;4.40;;;2.45;;
57800;SDS011;43627;42.728;23.256;2023-04-24T14:48:44;3.08;;;2.45;;
57800;SDS011;43627;42.728;23.256;2023-04-24T14:51:11;3.65;;;2.22;;
57800;SDS011;43627;42.728;23.256;2023-04-24T14:53:38;5.47;;;2.53;;
57800;SDS011;43627;42.728;23.256;2023-04-24T14:56:05;2.78;;;1.75;;